Main page
METAR-TAF:

METAR-TAF

Airports :

Tongatapu, Tonga

Fuaʻamotu International Airport

latitude: 21-14S, longitude: 175-09W, elevation: 38 m

Current weather observation

The report was made 23 minutes ago, at 00:00 UTC
Wind 5 kt from the Southwest
Temperature 25°C
Humidity 54%
Pressure 1015 hPa
Visibility 10 km or more
Few clouds at a height of 1800 ft

METAR: NFTF 200000Z 22005KT 9999 FEW018 25/15 Q1015 RMK DRY AIR 57%

Time: 13:23 (00:23 UTC)

Forecast

The report was made 1 hour and 19 minutes ago, at 23:04 UTC
Forecast valid from 20 at 00 UTC to 20 at 24 UTC
Wind 8 kt from the Southeast
Visibility 10 km or more
Few clouds at a height of 1800 ft

TAF: NFTF 192304Z 2000/2024 14008KT 9999 FEW018

Weather observations and forecasts of more than 4000 airports (METAR and TAF reports).

The available stations are represented by yellow and red dots on the map.

Hover mouse over dot to see the name of the station.

Then click to see weather observations and forecasts.

To change the map : click on the green buttons with a black cross to zoom in, on the green button with a dash to zoom out, or on the green arrows for adjacent maps.


METAR-TAF: